Time;durP1;ratioP1;P1;durP2;ratioP2;P2;SDS_P1;SDS_P2;PMS_P1;PMS_P2;Temp;Humidity;BMP_temperature;BMP_pressure;BME280_temperature;BME280_humidity;BME280_pressure;Samples;Min_cycle;Max_cycle;Signal;HPM_P1;HPM_P2
2024/02/25 00:01:53;;;;;;;65.50;35.10;;;;;;;3.81;100.00;100346.55;106048;1253;97752;-79
2024/02/25 00:04:39;;;;;;;61.80;35.90;;;;;;;3.81;100.00;100349.06;106423;1253;96507;-80
2024/02/25 00:07:25;;;;;;;54.30;32.20;;;;;;;3.79;100.00;100352.30;106011;1253;97229;-79
2024/02/25 00:10:10;;;;;;;56.00;33.90;;;;;;;3.78;100.00;100356.23;106138;1257;100596;-79
2024/02/25 00:12:56;;;;;;;59.40;33.10;;;;;;;3.79;100.00;100366.60;106105;1254;100367;-79
2024/02/25 00:15:41;;;;;;;56.00;33.60;;;;;;;3.78;100.00;100368.09;106476;1256;98542;-80
2024/02/25 00:18:27;;;;;;;64.20;36.00;;;;;;;3.78;100.00;100366.71;106463;1253;96513;-79
2024/02/25 00:21:12;;;;;;;55.20;34.70;;;;;;;3.75;100.00;100362.87;105956;1253;96309;-78
2024/02/25 00:23:58;;;;;;;61.10;36.60;;;;;;;3.74;100.00;100362.13;105995;1256;100065;-80
2024/02/25 00:26:44;;;;;;;57.80;35.60;;;;;;;3.73;100.00;100361.03;105981;1254;100388;-80
2024/02/25 00:29:29;;;;;;;54.90;34.80;;;;;;;3.71;100.00;100361.02;105886;1257;97942;-79
2024/02/25 00:32:15;;;;;;;59.80;35.90;;;;;;;3.69;100.00;100362.31;105836;1253;96584;-78
2024/02/25 00:35:00;;;;;;;59.80;36.30;;;;;;;3.67;100.00;100360.36;105976;1257;96594;-80
2024/02/25 00:37:47;;;;;;;59.90;38.00;;;;;;;3.65;100.00;100357.37;106066;1256;100020;-80
2024/02/25 00:40:34;;;;;;;65.40;37.90;;;;;;;3.65;100.00;100353.83;105792;1253;99069;-79
2024/02/25 00:43:19;;;;;;;58.30;36.70;;;;;;;3.65;100.00;100356.08;106042;1255;99072;-78
2024/02/25 00:46:05;;;;;;;59.50;36.40;;;;;;;3.66;100.00;100356.35;106078;1253;96603;-78
2024/02/25 00:48:50;;;;;;;61.50;38.20;;;;;;;3.68;100.00;100363.82;106031;1256;96865;-80
2024/02/25 00:51:36;;;;;;;67.90;41.60;;;;;;;3.67;100.00;100367.36;106115;1254;100024;-80
2024/02/25 00:54:22;;;;;;;63.70;40.70;;;;;;;3.66;100.00;100366.95;106281;1253;100306;-79
2024/02/25 00:57:07;;;;;;;59.60;37.40;;;;;;;3.65;100.00;100362.64;106328;1254;97779;-80
2024/02/25 00:59:53;;;;;;;54.40;35.70;;;;;;;3.64;100.00;100359.92;106467;1253;97301;-79
2024/02/25 01:02:40;;;;;;;57.10;36.80;;;;;;;3.62;100.00;100355.58;106071;1253;97406;-79
2024/02/25 01:05:25;;;;;;;58.80;35.80;;;;;;;3.60;100.00;100354.86;106036;1256;99933;-78
2024/02/25 01:08:12;;;;;;;56.00;36.60;;;;;;;3.60;100.00;100359.48;106182;1254;100323;-79
2024/02/25 01:10:57;;;;;;;56.10;35.10;;;;;;;3.59;100.00;100361.52;106795;1254;99021;-79
2024/02/25 01:13:43;;;;;;;58.40;36.30;;;;;;;3.57;100.00;100363.97;106713;1256;96595;-81
2024/02/25 01:16:29;;;;;;;58.70;36.00;;;;;;;3.55;100.00;100363.85;106627;1253;96398;-79
2024/02/25 01:19:14;;;;;;;52.00;33.50;;;;;;;3.53;100.00;100360.01;106661;1253;100471;-79
2024/02/25 01:22:00;;;;;;;55.30;33.70;;;;;;;3.51;100.00;100357.33;106658;1253;100359;-80
2024/02/25 01:24:45;;;;;;;51.80;32.60;;;;;;;3.49;100.00;100360.02;106763;1253;97847;-80
2024/02/25 01:27:31;;;;;;;55.70;34.50;;;;;;;3.47;100.00;100358.41;106655;1257;96668;-79
2024/02/25 01:30:17;;;;;;;61.10;38.30;;;;;;;3.46;100.00;100358.92;106783;1254;97112;-80
2024/02/25 01:33:03;;;;;;;59.50;36.70;;;;;;;3.44;100.00;100358.94;106169;1256;100827;-79
2024/02/25 01:35:48;;;;;;;65.30;39.40;;;;;;;3.42;100.00;100353.35;106249;1254;100084;-80
2024/02/25 01:38:34;;;;;;;65.50;39.80;;;;;;;3.41;100.00;100347.77;106124;1253;97746;-80
2024/02/25 01:41:19;;;;;;;65.40;38.60;;;;;;;3.40;100.00;100346.44;106631;1253;96626;-79
2024/02/25 01:44:05;;;;;;;66.80;39.70;;;;;;;3.39;100.00;100344.93;106562;1256;96572;-79
2024/02/25 01:46:50;;;;;;;68.20;41.80;;;;;;;3.38;100.00;100342.18;106016;1254;99988;-79
2024/02/25 01:49:36;;;;;;;64.10;39.30;;;;;;;3.38;100.00;100347.62;106075;1257;99945;-80
2024/02/25 01:52:24;;;;;;;67.10;42.00;;;;;;;3.39;100.00;100345.47;106316;1253;172674;-79
2024/02/25 01:55:10;;;;;;;68.40;42.30;;;;;;;3.38;100.00;100340.40;106031;1253;96658;-80
2024/02/25 01:57:55;;;;;;;69.90;44.60;;;;;;;3.39;100.00;100341.08;106001;1257;97080;-78
2024/02/25 02:00:41;;;;;;;75.70;44.10;;;;;;;3.39;100.00;100339.45;106542;1253;99988;-78
2024/02/25 02:03:27;;;;;;;68.00;40.20;;;;;;;3.38;100.00;100334.58;105972;1258;99981;-78
2024/02/25 02:06:13;;;;;;;61.70;38.20;;;;;;;3.37;100.00;100330.82;106015;1254;97816;-79
2024/02/25 02:08:59;;;;;;;60.50;36.90;;;;;;;3.36;100.00;100332.86;106754;1254;97496;-81
2024/02/25 02:11:57;;;;;;;58.30;35.10;;;;;;;3.35;100.00;100334.38;106631;1253;97109;-80
2024/02/25 02:14:43;;;;;;;58.90;36.10;;;;;;;3.33;100.00;100330.51;106604;1253;100084;-80
2024/02/25 02:17:29;;;;;;;57.30;34.40;;;;;;;3.32;100.00;100323.40;106560;1253;99308;-80
2024/02/25 02:20:21;;;;;;;64.10;37.30;;;;;;;3.30;100.00;100318.63;106772;1254;97659;-80
2024/02/25 02:23:06;;;;;;;58.50;33.60;;;;;;;3.28;100.00;100312.71;106618;1253;97518;-80
2024/02/25 02:25:51;;;;;;;53.00;32.70;;;;;;;3.26;100.00;100311.29;106651;1254;96655;-81
2024/02/25 02:28:37;;;;;;;62.40;36.20;;;;;;;3.23;100.00;100301.96;106665;1257;99990;-80
2024/02/25 02:31:23;;;;;;;55.20;33.90;;;;;;;3.23;100.00;100302.91;106601;1253;99278;-80
2024/02/25 02:34:08;;;;;;;55.50;34.20;;;;;;;3.21;100.00;100301.64;106432;1253;97704;-79
2024/02/25 02:36:54;;;;;;;54.10;33.30;;;;;;;3.21;100.00;100301.55;106005;1259;96593;-80
2024/02/25 02:39:39;;;;;;;50.60;33.30;;;;;;;3.20;100.00;100300.04;105994;1256;96575;-79
2024/02/25 02:42:27;;;;;;;47.90;32.20;;;;;;;3.19;100.00;100304.00;106210;1254;100043;-78
2024/02/25 02:45:13;;;;;;;52.30;33.10;;;;;;;3.19;100.00;100302.27;106032;1253;99826;-78
2024/02/25 02:47:59;;;;;;;46.90;31.10;;;;;;;3.18;100.00;100300.19;106069;1253;97850;-79
2024/02/25 02:50:44;;;;;;;54.80;32.10;;;;;;;3.18;100.00;100299.35;105924;1256;97068;-79
2024/02/25 02:53:30;;;;;;;49.20;31.70;;;;;;;3.16;100.00;100297.79;105921;1253;98294;-79
2024/02/25 02:56:16;;;;;;;50.20;31.10;;;;;;;3.14;100.00;100305.52;105990;1259;99989;-80
2024/02/25 02:59:01;;;;;;;48.40;31.20;;;;;;;3.13;100.00;100305.79;105998;1255;99088;-79
2024/02/25 03:01:51;;;;;;;50.60;31.50;;;;;;;3.13;100.00;100304.03;106065;1256;97890;-79
2024/02/25 03:04:37;;;;;;;51.40;31.40;;;;;;;3.11;100.00;100308.63;106035;1259;96518;-79
2024/02/25 03:07:24;;;;;;;50.40;30.50;;;;;;;3.11;100.00;100314.81;106154;1253;96552;-79
2024/02/25 03:10:13;;;;;;;45.20;29.00;;;;;;;3.12;100.00;100317.83;106102;1253;99998;-79
2024/02/25 03:12:59;;;;;;;47.30;29.50;;;;;;;3.15;100.00;100313.38;106004;1253;99280;-79
2024/02/25 03:15:44;;;;;;;52.80;31.80;;;;;;;3.17;100.00;100315.30;105964;1272;99048;-79
2024/02/25 03:18:30;;;;;;;45.70;29.90;;;;;;;3.18;100.00;100319.73;106088;1253;96549;-80
2024/02/25 03:21:17;;;;;;;45.80;30.10;;;;;;;3.21;100.00;100320.59;106093;1253;97871;-79
2024/02/25 03:24:03;;;;;;;49.50;30.50;;;;;;;3.23;100.00;100324.39;106065;1257;100855;-78
2024/02/25 03:26:51;;;;;;;45.80;29.70;;;;;;;3.26;100.00;100330.13;106066;1253;100338;-80
2024/02/25 03:29:40;;;;;;;51.10;31.00;;;;;;;3.28;100.00;100333.10;105919;1258;98380;-78
2024/02/25 03:32:25;;;;;;;47.00;31.50;;;;;;;3.30;100.00;100334.89;106369;1254;96699;-79
2024/02/25 03:35:11;;;;;;;50.20;31.40;;;;;;;3.31;100.00;100334.58;106068;1257;96609;-80
2024/02/25 03:37:57;;;;;;;50.30;29.80;;;;;;;3.31;100.00;100333.02;106130;1253;100538;-79
2024/02/25 03:40:43;;;;;;;47.50;29.70;;;;;;;3.29;100.00;100328.58;106006;1256;99230;-80
2024/02/25 03:43:29;;;;;;;46.80;30.70;;;;;;;3.29;100.00;100331.48;105933;1257;98639;-79
2024/02/25 03:46:14;;;;;;;50.40;31.40;;;;;;;3.28;100.00;100331.84;106402;1254;96600;-80
2024/02/25 03:48:59;;;;;;;49.60;30.00;;;;;;;3.29;100.00;100331.63;106515;1253;96508;-79
2024/02/25 03:51:45;;;;;;;49.20;29.80;;;;;;;3.29;100.00;100332.91;105809;1259;101281;-79
2024/02/25 03:54:30;;;;;;;44.40;28.70;;;;;;;3.27;100.00;100333.55;105840;1257;100304;-78
2024/02/25 03:57:16;;;;;;;46.80;29.70;;;;;;;3.26;100.00;100331.89;105836;1253;97892;-77
2024/02/25 04:00:03;;;;;;;47.50;30.10;;;;;;;3.25;100.00;100334.14;106303;1254;96810;-80
2024/02/25 04:02:50;;;;;;;44.40;27.20;;;;;;;3.23;100.00;100332.33;106356;1258;96514;-80
2024/02/25 04:05:37;;;;;;;44.60;29.20;;;;;;;3.23;100.00;100331.14;106674;1253;100546;-79
2024/02/25 04:08:24;;;;;;;45.50;28.50;;;;;;;3.22;100.00;100327.70;106599;1256;99166;-79
2024/02/25 04:11:09;;;;;;;48.20;30.10;;;;;;;3.22;100.00;100319.13;106542;1254;97725;-81
2024/02/25 04:13:55;;;;;;;47.90;30.10;;;;;;;3.17;100.00;100310.89;106609;1254;97419;-82
2024/02/25 04:16:41;;;;;;;44.90;28.60;;;;;;;3.11;100.00;100314.95;106539;1256;95991;-80
2024/02/25 04:19:27;;;;;;;43.00;27.60;;;;;;;3.07;100.00;100319.42;106669;1256;100083;-80
2024/02/25 04:22:12;;;;;;;46.00;28.80;;;;;;;3.06;100.00;100314.41;106957;1254;99083;-81
2024/02/25 04:24:58;;;;;;;42.60;28.00;;;;;;;3.05;100.00;100308.85;107002;1253;99015;-80
2024/02/25 04:27:44;;;;;;;45.30;27.80;;;;;;;3.02;100.00;100303.36;106809;1256;96605;-80
2024/02/25 04:30:29;;;;;;;44.50;28.20;;;;;;;2.98;100.00;100302.78;106875;1253;97148;-81
2024/02/25 04:33:15;;;;;;;46.10;27.40;;;;;;;2.97;100.00;100301.70;106469;1259;99982;-79
2024/02/25 04:36:00;;;;;;;43.80;28.60;;;;;;;2.95;100.00;100303.83;106549;1253;100411;-79
2024/02/25 04:38:47;;;;;;;40.60;25.90;;;;;;;2.93;100.00;100300.85;106684;1253;98694;-80
2024/02/25 04:41:32;;;;;;;45.50;27.60;;;;;;;2.92;100.00;100292.82;106608;1257;96593;-81
2024/02/25 04:44:18;;;;;;;42.90;27.50;;;;;;;2.91;100.00;100297.27;106089;1254;97048;-79
2024/02/25 04:47:03;;;;;;;47.40;28.30;;;;;;;2.91;100.00;100297.18;106804;1254;100803;-79
2024/02/25 04:49:49;;;;;;;49.00;28.00;;;;;;;2.89;100.00;100292.56;106705;1254;99075;-81
2024/02/25 04:52:35;;;;;;;43.40;26.70;;;;;;;2.87;100.00;100288.59;106550;1259;98968;-79
2024/02/25 04:55:20;;;;;;;46.80;27.30;;;;;;;2.84;100.00;100282.84;106601;1253;96613;-80
2024/02/25 04:58:08;;;;;;;43.60;27.50;;;;;;;2.81;100.00;100284.49;106643;1254;96690;-79
2024/02/25 05:00:54;;;;;;;45.10;27.10;;;;;;;2.76;100.00;100288.00;106594;1254;100003;-81
2024/02/25 05:03:39;;;;;;;44.80;27.40;;;;;;;2.72;100.00;100296.49;106500;1254;100082;-80
2024/02/25 05:06:25;;;;;;;45.30;27.70;;;;;;;2.71;100.00;100300.68;106486;1253;97694;-79
2024/02/25 05:09:11;;;;;;;42.50;26.10;;;;;;;2.71;100.00;100301.20;106065;1253;96603;-78
2024/02/25 05:11:56;;;;;;;45.00;29.30;;;;;;;2.73;100.00;100304.90;106099;1256;97041;-78
2024/02/25 05:14:42;;;;;;;46.70;28.80;;;;;;;2.74;100.00;100307.63;105971;1254;100573;-79
2024/02/25 05:17:27;;;;;;;41.20;27.40;;;;;;;2.74;100.00;100307.60;105991;1253;100783;-79
2024/02/25 05:20:14;;;;;;;44.60;28.00;;;;;;;2.74;100.00;100308.30;106040;1254;98401;-78
2024/02/25 05:23:00;;;;;;;46.20;28.50;;;;;;;2.74;100.00;100309.02;106068;1253;97556;-79
2024/02/25 05:25:45;;;;;;;45.60;29.20;;;;;;;2.74;100.00;100302.00;106103;1253;96576;-80
2024/02/25 05:28:31;;;;;;;52.20;28.70;;;;;;;2.73;100.00;100303.14;106243;1258;100029;-80
2024/02/25 05:31:17;;;;;;;51.50;29.30;;;;;;;2.72;100.00;100301.06;106587;1253;100400;-79
2024/02/25 05:34:02;;;;;;;48.60;30.20;;;;;;;2.70;100.00;100299.20;106599;1253;98424;-80
2024/02/25 05:36:48;;;;;;;44.80;27.20;;;;;;;2.70;100.00;100298.33;106592;1253;95806;-81
2024/02/25 05:39:33;;;;;;;44.60;29.30;;;;;;;2.71;100.00;100299.26;106783;1253;97212;-80
2024/02/25 05:42:19;;;;;;;50.70;30.00;;;;;;;2.72;100.00;100299.67;106625;1253;101250;-81
2024/02/25 05:45:06;;;;;;;47.40;29.00;;;;;;;2.73;100.00;100297.10;106862;1258;100118;-80
2024/02/25 05:47:51;;;;;;;45.30;28.60;;;;;;;2.74;100.00;100293.38;106466;1254;98539;-78
2024/02/25 05:50:37;;;;;;;48.50;28.60;;;;;;;2.73;100.00;100292.04;106067;1259;96622;-80
2024/02/25 05:53:22;;;;;;;43.70;28.90;;;;;;;2.71;100.00;100292.73;106687;1253;96415;-80
2024/02/25 05:56:08;;;;;;;46.20;28.60;;;;;;;2.69;100.00;100293.64;106664;1254;100071;-79
2024/02/25 05:58:53;;;;;;;46.20;28.40;;;;;;;2.66;100.00;100297.24;106649;1253;99113;-80
2024/02/25 06:01:46;;;;;;;43.30;27.60;;;;;;;2.65;100.00;100296.83;106541;1254;97739;-79
2024/02/25 06:04:36;;;;;;;52.80;29.70;;;;;;;2.64;100.00;100296.97;106588;1253;96674;-80
2024/02/25 06:07:23;;;;;;;42.90;27.50;;;;;;;2.62;100.00;100303.30;106764;1253;95874;-80
2024/02/25 06:10:09;;;;;;;50.20;28.80;;;;;;;2.61;100.00;100302.33;106338;1257;100025;-80
2024/02/25 06:12:55;;;;;;;43.20;28.50;;;;;;;2.61;100.00;100301.40;106703;1259;100304;-80
2024/02/25 06:15:40;;;;;;;49.70;28.80;;;;;;;2.62;100.00;100302.02;106808;1254;98500;-80
2024/02/25 06:18:25;;;;;;;47.90;29.00;;;;;;;2.60;100.00;100300.45;106740;1253;96517;-80
2024/02/25 06:21:11;;;;;;;45.00;27.80;;;;;;;2.62;100.00;100304.73;106623;1258;97160;-80
2024/02/25 06:23:56;;;;;;;45.90;29.40;;;;;;;2.64;100.00;100312.42;106566;1254;100147;-80
2024/02/25 06:26:43;;;;;;;45.70;29.00;;;;;;;2.66;100.00;100308.55;106634;1253;99065;-80
2024/02/25 06:29:29;;;;;;;46.50;29.70;;;;;;;2.68;100.00;100312.41;106547;1254;97766;-80
2024/02/25 06:32:14;;;;;;;48.40;30.40;;;;;;;2.71;100.00;100316.52;106513;1253;96646;-80
2024/02/25 06:35:01;;;;;;;50.80;30.00;;;;;;;2.75;100.00;100315.43;106279;1260;96702;-79
2024/02/25 06:37:47;;;;;;;47.90;30.70;;;;;;;2.80;100.00;100317.83;105853;1259;100885;-79
2024/02/25 06:40:32;;;;;;;50.70;32.20;;;;;;;2.83;100.00;100315.89;105903;1258;100868;-80
2024/02/25 06:43:18;;;;;;;49.60;31.40;;;;;;;2.87;100.00;100316.08;106743;1258;98382;-80
2024/02/25 06:46:04;;;;;;;56.60;34.20;;;;;;;2.90;100.00;100321.45;106589;1254;97483;-81
2024/02/25 06:48:49;;;;;;;54.60;32.90;;;;;;;2.92;100.00;100321.08;106706;1254;96648;-80
2024/02/25 06:51:35;;;;;;;47.70;31.10;;;;;;;2.95;100.00;100316.19;106670;1256;99980;-80
2024/02/25 06:54:21;;;;;;;46.30;31.40;;;;;;;2.98;100.00;100321.66;106449;1253;99057;-77
2024/02/25 06:57:07;;;;;;;61.50;36.30;;;;;;;3.02;100.00;100332.42;105822;1259;97753;-80
2024/02/25 06:59:52;;;;;;;67.30;38.20;;;;;;;3.04;100.00;100333.45;106351;1254;96719;-78
2024/02/25 07:02:38;;;;;;;67.80;41.50;;;;;;;3.08;100.00;100333.81;106093;1256;95983;-81
2024/02/25 07:05:24;;;;;;;71.30;42.70;;;;;;;3.12;100.00;100335.34;106884;1256;100019;-80
2024/02/25 07:08:10;;;;;;;72.30;43.50;;;;;;;3.16;100.00;100327.20;106697;1258;99651;-82
2024/02/25 07:10:56;;;;;;;65.20;38.30;;;;;;;3.19;100.00;100312.08;106742;1256;97909;-80
2024/02/25 07:13:42;;;;;;;59.20;36.00;;;;;;;3.22;100.00;100310.41;106569;1259;96724;-80
2024/02/25 07:16:27;;;;;;;53.30;32.30;;;;;;;3.24;100.00;100303.89;106032;1253;97045;-80
2024/02/25 07:19:13;;;;;;;53.10;33.30;;;;;;;3.24;100.00;100307.40;106607;1253;100617;-80
2024/02/25 07:21:59;;;;;;;57.70;34.20;;;;;;;3.24;100.00;100305.25;106615;1254;99130;-79
2024/02/25 07:24:44;;;;;;;58.00;34.00;;;;;;;3.27;100.00;100306.57;106461;1256;97909;-84
2024/02/25 07:27:32;;;;;;;62.50;36.10;;;;;;;3.31;100.00;100302.68;106289;1261;96549;-84
2024/02/25 07:30:19;;;;;;;66.70;38.90;;;;;;;3.33;100.00;100298.04;106334;1255;96697;-87
2024/02/25 07:33:05;;;;;;;52.00;33.80;;;;;;;3.34;100.00;100289.79;106740;1253;100824;-83
2024/02/25 07:35:51;;;;;;;54.60;32.40;;;;;;;3.36;100.00;100283.11;106370;1259;100457;-81
2024/02/25 07:38:39;;;;;;;97.10;52.40;;;;;;;3.38;100.00;100281.27;106457;1256;99973;-84
2024/02/25 07:41:24;;;;;;;68.50;39.00;;;;;;;3.42;100.00;100275.98;106552;1256;96511;-84
2024/02/25 07:44:11;;;;;;;58.60;35.80;;;;;;;3.47;100.00;100267.69;106490;1259;96609;-83
2024/02/25 07:46:59;;;;;;;62.40;38.50;;;;;;;3.54;100.00;100261.18;106434;1259;100982;-80
2024/02/25 07:49:45;;;;;;;64.10;45.30;;;;;;;3.63;100.00;100262.06;106322;1256;100542;-79
2024/02/25 07:52:32;;;;;;;64.80;44.60;;;;;;;3.70;100.00;100252.31;106300;1256;98568;-86
2024/02/25 07:55:18;;;;;;;62.40;39.80;;;;;;;3.78;100.00;100241.13;106225;1253;96597;-81
2024/02/25 07:58:06;;;;;;;64.40;43.30;;;;;;;3.86;100.00;100238.57;106581;1259;96469;-79
2024/02/25 08:00:52;;;;;;;59.90;38.20;;;;;;;3.94;100.00;100244.60;106411;1259;100768;-80
2024/02/25 08:03:37;;;;;;;66.90;44.70;;;;;;;4.03;100.00;100235.95;106466;1259;99123;-79
2024/02/25 08:06:27;;;;;;;69.10;45.80;;;;;;;4.11;100.00;100229.49;106467;1259;97751;-79
2024/02/25 08:09:13;;;;;;;59.80;38.40;;;;;;;4.19;100.00;100227.04;106739;1256;96697;-81
2024/02/25 08:11:59;;;;;;;66.30;43.60;;;;;;;4.27;100.00;100221.69;107054;1259;95985;-81
2024/02/25 08:14:45;;;;;;;55.40;35.60;;;;;;;4.34;100.00;100222.86;106913;1257;101279;-80
2024/02/25 08:17:31;;;;;;;51.10;32.80;;;;;;;4.43;100.00;100223.02;106941;1259;100346;-80
2024/02/25 08:20:17;;;;;;;52.70;34.50;;;;;;;4.52;100.00;100217.94;106803;1259;99523;-79
2024/02/25 08:23:03;;;;;;;57.00;35.90;;;;;;;4.66;100.00;100214.23;106193;1270;96699;-79
2024/02/25 08:25:48;;;;;;;62.70;40.80;;;;;;;4.82;100.00;100217.13;106113;1259;96575;-79
2024/02/25 08:28:36;;;;;;;63.10;39.90;;;;;;;4.97;100.00;100215.76;106194;1256;101229;-78
2024/02/25 08:31:21;;;;;;;60.60;39.40;;;;;;;5.12;100.00;100217.67;106043;1259;100089;-85
2024/02/25 08:34:08;;;;;;;59.50;38.10;;;;;;;5.27;100.00;100209.02;106253;1263;99142;-87
2024/02/25 08:36:54;;;;;;;60.80;38.40;;;;;;;5.43;100.00;100202.12;106438;1260;96705;-87
2024/02/25 08:39:40;;;;;;;59.30;38.10;;;;;;;5.60;100.00;100194.24;106304;1259;97028;-86
2024/02/25 08:42:26;;;;;;;59.80;38.10;;;;;;;5.76;100.00;100193.63;106542;1253;101244;-91
2024/02/25 08:45:12;;;;;;;57.40;37.90;;;;;;;5.89;100.00;100189.67;106518;1254;99203;-81
2024/02/25 08:48:03;;;;;;;57.60;37.10;;;;;;;6.03;100.00;100190.64;106535;1253;97701;-91
2024/02/25 08:50:49;;;;;;;;;;;;;;;6.15;100.00;100188.02;106756;1261;96507;-89
2024/02/25 08:53:34;;;;;;;124.30;65.40;;;;;;;6.27;100.00;100188.33;106268;1253;97058;-81
2024/02/25 08:56:20;;;;;;;56.00;37.00;;;;;;;6.39;100.00;100186.31;106311;1259;100110;-80
2024/02/25 08:59:05;;;;;;;44.80;31.50;;;;;;;6.49;100.00;100183.59;106707;1257;99834;-80
2024/02/25 09:01:51;;;;;;;45.70;30.90;;;;;;;6.59;100.00;100176.73;106414;1253;98375;-84
2024/02/25 09:04:36;;;;;;;50.20;32.80;;;;;;;6.69;100.00;100175.61;106316;1260;96611;-85
2024/02/25 09:07:24;;;;;;;77.90;46.30;;;;;;;6.78;100.00;100167.95;106455;1261;97894;-84
2024/02/25 09:10:13;;;;;;;135.90;67.00;;;;;;;6.88;100.00;100165.98;106553;1253;101366;-90
2024/02/25 09:13:01;;;;;;;75.80;44.10;;;;;;;6.96;100.00;100163.77;106571;1253;100443;-80
2024/02/25 09:15:48;;;;;;;73.90;45.00;;;;;;;7.05;100.00;100165.98;106422;1254;98855;-82
2024/02/25 09:18:34;;;;;;;84.00;50.20;;;;;;;7.14;100.00;100160.64;106497;1254;96695;-83
2024/02/25 09:21:20;;;;;;;64.90;41.90;;;;;;;7.24;100.00;100153.86;106303;1253;96610;-84
2024/02/25 09:24:07;;;;;;;53.20;35.20;;;;;;;7.32;100.00;100149.88;106628;1254;99982;-83
2024/02/25 09:26:53;;;;;;;56.20;38.80;;;;;;;7.39;100.00;100155.46;106701;1259;100747;-84
2024/02/25 09:29:40;;;;;;;47.70;33.10;;;;;;;7.45;100.00;100157.19;106539;1253;97792;-84
2024/02/25 09:32:30;;;;;;;40.50;30.30;;;;;;;7.50;100.00;100154.98;106560;1253;96028;-90
2024/02/25 09:35:16;;;;;;;40.70;28.60;;;;;;;7.58;100.00;100155.16;106558;1254;96438;-89
2024/02/25 09:38:02;;;;;;;41.70;27.40;;;;;;;7.64;100.00;100151.92;106626;1261;100934;-85
2024/02/25 09:40:58;;;;;;;39.50;28.90;;;;;;;7.71;100.00;100151.81;106430;1261;100157;-89
2024/02/25 09:43:44;;;;;;;37.70;26.10;;;;;;;7.78;100.00;100152.42;106465;1259;98907;-79
2024/02/25 09:46:34;;;;;;;38.10;27.60;;;;;;;7.85;100.00;100147.70;105979;1259;96610;-80
2024/02/25 09:49:24;;;;;;;37.10;26.80;;;;;;;7.92;100.00;100138.73;105986;1259;96230;-78
2024/02/25 09:52:12;;;;;;;40.60;27.50;;;;;;;8.00;100.00;100137.28;105769;1259;100772;-79
2024/02/25 09:54:59;;;;;;;37.20;26.10;;;;;;;8.08;100.00;100137.78;106422;1257;99128;-85
2024/02/25 09:57:44;;;;;;;37.10;27.50;;;;;;;8.16;100.00;100136.38;105638;1259;99125;-84
2024/02/25 10:00:31;;;;;;;37.50;26.80;;;;;;;8.23;100.00;100134.46;106226;1260;96625;-83
2024/02/25 10:03:17;;;;;;;38.90;26.80;;;;;;;8.30;100.00;100127.55;106218;1257;97619;-76
2024/02/25 10:06:03;;;;;;;41.10;27.30;;;;;;;8.38;100.00;100125.29;106282;1257;101390;-83
2024/02/25 10:08:53;;;;;;;35.30;25.30;;;;;;;8.46;100.00;100114.39;106291;1257;99772;-85
2024/02/25 10:11:41;;;;;;;37.10;26.90;;;;;;;8.53;100.00;100106.36;105485;1259;99007;-75
2024/02/25 10:14:27;;;;;;;61.80;39.90;;;;;;;8.62;100.00;100101.91;105415;1260;96603;-76
2024/02/25 10:17:14;;;;;;;45.10;30.30;;;;;;;8.70;100.00;100106.23;105756;1259;97103;-83
2024/02/25 10:20:01;;;;;;;59.80;39.90;;;;;;;8.78;100.00;100100.71;106471;1253;100060;-80
2024/02/25 10:22:47;;;;;;;40.00;27.30;;;;;;;8.85;100.00;100099.73;106657;1257;99148;-79
2024/02/25 10:25:33;;;;;;;34.70;25.60;;;;;;;8.92;100.00;100093.89;105975;1257;98707;-78
2024/02/25 10:28:18;;;;;;;38.70;26.30;;;;;;;8.98;100.00;100087.34;105721;1260;96638;-77
2024/02/25 10:31:05;;;;;;;41.20;28.00;;;;;;;9.05;100.00;100083.23;106568;1258;96571;-77
2024/02/25 10:33:59;;;;;;;38.90;28.10;;;;;;;9.12;100.00;100079.36;106377;1259;102253;-78
2024/02/25 10:36:45;;;;;;;37.60;25.10;;;;;;;9.19;100.00;100074.30;105523;1254;100369;-77
2024/02/25 10:39:31;;;;;;;38.80;28.60;;;;;;;9.28;100.00;100071.95;105899;1256;97793;-78
2024/02/25 10:42:22;;;;;;;38.70;26.80;;;;;;;9.36;100.00;100071.50;105839;1257;97512;-78
2024/02/25 10:45:09;;;;;;;36.40;25.20;;;;;;;9.43;100.00;100064.55;106465;1256;96819;-78
2024/02/25 10:47:56;;;;;;;33.80;24.10;;;;;;;9.52;100.00;100065.23;106053;1256;99977;-78
2024/02/25 10:50:43;;;;;;;32.20;24.20;;;;;;;9.59;100.00;100059.12;106685;1256;99993;-76
2024/02/25 10:53:30;;;;;;;36.00;26.50;;;;;;;9.66;100.00;100052.67;105771;1260;97736;-78
2024/02/25 10:56:18;;;;;;;38.80;25.00;;;;;;;9.74;100.00;100052.48;108029;1254;96603;-77
2024/02/25 10:59:08;;;;;;;37.40;24.40;;;;;;;9.82;100.00;100042.95;105937;1260;97091;-84
2024/02/25 11:01:57;;;;;;;34.90;24.00;;;;;;;9.90;100.00;100040.25;106232;1257;102168;-83
2024/02/25 11:04:47;;;;;;;33.00;24.30;;;;;;;9.98;100.00;100041.25;106444;1257;100393;-77
2024/02/25 11:07:32;;;;;;;34.80;24.30;;;;;;;10.09;100.00;100041.09;105869;1257;97682;-78
2024/02/25 11:10:21;;;;;;;32.00;22.90;;;;;;;10.18;100.00;100039.05;105793;1258;97125;-77
2024/02/25 11:13:13;;;;;;;40.90;26.90;;;;;;;10.26;100.00;100040.66;106055;1260;97785;-77
2024/02/25 11:16:04;;;;;;;43.20;28.10;;;;;;;10.32;100.00;100042.84;105668;1254;100073;-76
2024/02/25 11:18:50;;;;;;;47.30;31.10;;;;;;;10.39;100.00;100040.31;105595;1260;100557;-77
2024/02/25 11:21:36;;;;;;;34.90;24.20;;;;;;;10.45;100.00;100029.92;105618;1254;98087;-78
2024/02/25 11:24:47;;;;;;;36.90;25.80;;;;;;;10.53;100.00;100023.92;107631;1259;96405;-78
2024/02/25 11:28:02;;;;;;;48.10;34.10;;;;;;;10.60;100.00;100020.10;106940;1260;98011;-77
2024/02/25 11:30:49;;;;;;;32.60;23.10;;;;;;;10.67;100.00;100015.75;105694;1256;100094;-78
2024/02/25 11:33:39;;;;;;;30.90;22.10;;;;;;;10.74;100.00;100015.48;105859;1256;99094;-77
2024/02/25 11:36:24;;;;;;;33.90;23.80;;;;;;;10.82;100.00;100010.77;105953;1256;97686;-78
2024/02/25 11:39:12;;;;;;;36.20;26.10;;;;;;;10.90;100.00;100006.66;105675;1262;97056;-75
2024/02/25 11:42:00;;;;;;;44.10;31.30;;;;;;;10.97;100.00;100000.45;105662;1260;97105;-78
2024/02/25 11:44:45;;;;;;;32.20;23.00;;;;;;;11.05;100.00;99995.72;105653;1256;100032;-77
2024/02/25 11:47:31;;;;;;;42.30;31.30;;;;;;;11.11;100.00;99996.30;105496;1258;99083;-77
2024/02/25 11:50:17;;;;;;;34.40;25.50;;;;;;;11.18;100.00;99995.36;105629;1256;99008;-77
2024/02/25 11:53:02;;;;;;;30.80;23.10;;;;;;;11.27;100.00;99994.83;105745;1266;97485;-78
2024/02/25 11:55:48;;;;;;;30.00;21.10;;;;;;;11.35;100.00;99988.94;106030;1264;97029;-83
2024/02/25 11:58:34;;;;;;;24.80;19.30;;;;;;;11.43;100.00;99991.62;106279;1259;101422;-76
2024/02/25 12:01:21;;;;;;;26.00;17.20;;;;;;;11.50;100.00;99987.90;106586;1257;100623;-86
2024/02/25 12:04:07;;;;;;;22.50;15.90;;;;;;;11.57;100.00;99985.09;106273;1255;97861;-82
2024/02/25 12:06:58;;;;;;;21.10;14.60;;;;;;;11.66;100.00;99977.95;106380;1260;96529;-86
2024/02/25 12:09:44;;;;;;;22.50;15.60;;;;;;;11.74;100.00;99970.23;106179;1258;97029;-85
2024/02/25 12:12:30;;;;;;;20.20;14.90;;;;;;;11.81;100.00;99965.39;106249;1257;100644;-86
2024/02/25 12:15:16;;;;;;;20.50;14.40;;;;;;;11.87;100.00;99959.18;106544;1260;99151;-86
2024/02/25 12:18:03;;;;;;;25.40;17.60;;;;;;;11.96;100.00;99957.50;106482;1259;98950;-85
2024/02/25 12:20:51;;;;;;;22.70;14.50;;;;;;;12.04;100.00;99953.52;106371;1260;96945;-83
2024/02/25 12:23:46;;;;;;;23.80;13.30;;;;;;;12.11;100.00;99953.95;105120;1257;2007010;-87
2024/02/25 12:26:59;;;;;;;17.40;12.10;;;;;;;12.20;100.00;99949.63;106354;1262;100081;-86